sensor_id;sensor_type;location;lat;lon;timestamp;pressure;altitude;pressure_sealevel;temperature;humidity
49044;BME280;34860;48.066;14.124;2023-04-08T00:02:16;96516.19;;;8.34;48.23
49044;BME280;34860;48.066;14.124;2023-04-08T00:05:04;96514.63;;;8.33;48.30
49044;BME280;34860;48.066;14.124;2023-04-08T00:07:55;96513.84;;;8.32;48.33
49044;BME280;34860;48.066;14.124;2023-04-08T00:10:43;96517.84;;;8.31;48.38
49044;BME280;34860;48.066;14.124;2023-04-08T00:13:31;96514.22;;;8.34;48.35
49044;BME280;34860;48.066;14.124;2023-04-08T00:16:19;96517.41;;;8.33;48.44
49044;BME280;34860;48.066;14.124;2023-04-08T00:19:12;96512.28;;;8.31;48.31
49044;BME280;34860;48.066;14.124;2023-04-08T00:22:02;96519.78;;;8.31;48.38
49044;BME280;34860;48.066;14.124;2023-04-08T00:24:52;96510.72;;;8.30;48.31
49044;BME280;34860;48.066;14.124;2023-04-08T00:27:42;96509.94;;;8.30;48.39
49044;BME280;34860;48.066;14.124;2023-04-08T00:30:30;96519.03;;;8.30;48.46
49044;BME280;34860;48.066;14.124;2023-04-08T00:33:21;96509.56;;;8.28;48.36
49044;BME280;34860;48.066;14.124;2023-04-08T00:36:12;96505.69;;;8.25;48.39
49044;BME280;34860;48.066;14.124;2023-04-08T00:39:00;96503.78;;;8.22;48.36
49044;BME280;34860;48.066;14.124;2023-04-08T00:41:51;96514.03;;;8.22;48.42
49044;BME280;34860;48.066;14.124;2023-04-08T00:44:39;96508.16;;;8.19;48.43
49044;BME280;34860;48.066;14.124;2023-04-08T00:47:31;96512.91;;;8.19;48.42
49044;BME280;34860;48.066;14.124;2023-04-08T00:50:19;96507.47;;;8.15;48.45
49044;BME280;34860;48.066;14.124;2023-04-08T00:53:10;96513.41;;;8.14;48.51
49044;BME280;34860;48.066;14.124;2023-04-08T00:55:59;96520.16;;;8.13;48.64
49044;BME280;34860;48.066;14.124;2023-04-08T00:58:47;96514.63;;;8.13;48.52
49044;BME280;34860;48.066;14.124;2023-04-08T01:01:42;96522.91;;;8.13;48.67
49044;BME280;34860;48.066;14.124;2023-04-08T01:04:45;96523.75;;;8.10;48.70
49044;BME280;34860;48.066;14.124;2023-04-08T01:07:42;96524.97;;;8.09;48.59
49044;BME280;34860;48.066;14.124;2023-04-08T01:10:34;96524.97;;;8.09;48.68
49044;BME280;34860;48.066;14.124;2023-04-08T01:13:29;96523.84;;;8.06;48.79
49044;BME280;34860;48.066;14.124;2023-04-08T01:16:18;96523.50;;;8.04;48.64
49044;BME280;34860;48.066;14.124;2023-04-08T01:19:23;96524.75;;;7.99;48.64
49044;BME280;34860;48.066;14.124;2023-04-08T01:22:22;96522.84;;;7.96;48.76
49044;BME280;34860;48.066;14.124;2023-04-08T01:25:16;96521.25;;;7.95;48.76
49044;BME280;34860;48.066;14.124;2023-04-08T01:28:10;96529.56;;;7.95;48.78
49044;BME280;34860;48.066;14.124;2023-04-08T01:31:01;96518.16;;;7.93;48.94
49044;BME280;34860;48.066;14.124;2023-04-08T01:33:51;96510.63;;;7.94;48.84
49044;BME280;34860;48.066;14.124;2023-04-08T01:36:43;96515.38;;;7.93;49.08
49044;BME280;34860;48.066;14.124;2023-04-08T01:39:33;96509.03;;;7.93;49.00
49044;BME280;34860;48.066;14.124;2023-04-08T01:42:23;96515.00;;;7.91;49.00
49044;BME280;34860;48.066;14.124;2023-04-08T01:45:14;96510.25;;;7.92;49.00
49044;BME280;34860;48.066;14.124;2023-04-08T01:48:02;96515.00;;;7.91;48.95
49044;BME280;34860;48.066;14.124;2023-04-08T01:50:53;96511.81;;;7.93;48.87
49044;BME280;34860;48.066;14.124;2023-04-08T01:53:42;96509.03;;;7.93;49.07
49044;BME280;34860;48.066;14.124;2023-04-08T01:56:35;96504.66;;;7.95;49.01
49044;BME280;34860;48.066;14.124;2023-04-08T01:59:27;96499.91;;;7.96;48.98
49044;BME280;34860;48.066;14.124;2023-04-08T02:02:19;96499.91;;;7.96;48.99
49044;BME280;34860;48.066;14.124;2023-04-08T02:05:08;96499.47;;;7.97;49.01
49044;BME280;34860;48.066;14.124;2023-04-08T02:07:56;96501.81;;;7.99;49.04
49044;BME280;34860;48.066;14.124;2023-04-08T02:10:45;96500.63;;;8.00;49.16
49044;BME280;34860;48.066;14.124;2023-04-08T02:13:33;96500.19;;;8.02;49.09
49044;BME280;34860;48.066;14.124;2023-04-08T02:16:25;96504.53;;;8.03;48.95
49044;BME280;34860;48.066;14.124;2023-04-08T02:19:19;96495.00;;;8.04;49.16
49044;BME280;34860;48.066;14.124;2023-04-08T02:22:16;96500.13;;;8.05;49.14
49044;BME280;34860;48.066;14.124;2023-04-08T02:25:08;96498.94;;;8.06;49.08
49044;BME280;34860;48.066;14.124;2023-04-08T02:27:59;96505.59;;;8.09;49.04
49044;BME280;34860;48.066;14.124;2023-04-08T02:30:51;96497.69;;;8.07;49.34
49044;BME280;34860;48.066;14.124;2023-04-08T02:33:39;96508.34;;;8.09;49.21
49044;BME280;34860;48.066;14.124;2023-04-08T02:36:31;96510.28;;;8.12;49.18
49044;BME280;34860;48.066;14.124;2023-04-08T02:39:29;96509.16;;;8.09;49.08
49044;BME280;34860;48.066;14.124;2023-04-08T02:42:20;96513.03;;;8.12;49.19
49044;BME280;34860;48.066;14.124;2023-04-08T02:45:10;96513.84;;;8.12;49.18
49044;BME280;34860;48.066;14.124;2023-04-08T02:47:59;96511.84;;;8.13;49.25
49044;BME280;34860;48.066;14.124;2023-04-08T02:50:47;96509.06;;;8.13;49.20
49044;BME280;34860;48.066;14.124;2023-04-08T02:53:38;96509.84;;;8.13;49.30
49044;BME280;34860;48.066;14.124;2023-04-08T02:56:26;96512.63;;;8.13;49.33
49044;BME280;34860;48.066;14.124;2023-04-08T02:59:15;96510.66;;;8.14;49.38
49044;BME280;34860;48.066;14.124;2023-04-08T03:02:03;96520.50;;;8.15;49.18
49044;BME280;34860;48.066;14.124;2023-04-08T03:04:55;96519.72;;;8.14;49.29
49044;BME280;34860;48.066;14.124;2023-04-08T03:07:44;96514.97;;;8.15;49.36
49044;BME280;34860;48.066;14.124;2023-04-08T03:10:34;96512.63;;;8.13;49.38
49044;BME280;34860;48.066;14.124;2023-04-08T03:13:22;96524.84;;;8.16;49.43
49044;BME280;34860;48.066;14.124;2023-04-08T03:16:10;96517.38;;;8.13;49.41
49044;BME280;34860;48.066;14.124;2023-04-08T03:18:58;96523.69;;;8.13;49.43
49044;BME280;34860;48.066;14.124;2023-04-08T03:21:46;96528.09;;;8.11;49.54
49044;BME280;34860;48.066;14.124;2023-04-08T03:24:34;96528.09;;;8.11;49.48
49044;BME280;34860;48.066;14.124;2023-04-08T03:27:25;96521.34;;;8.12;49.64
49044;BME280;34860;48.066;14.124;2023-04-08T03:30:13;96514.69;;;8.09;49.87
49044;BME280;34860;48.066;14.124;2023-04-08T03:33:01;96518.66;;;8.08;49.71
49044;BME280;34860;48.066;14.124;2023-04-08T03:35:53;96515.88;;;8.08;49.75
49044;BME280;34860;48.066;14.124;2023-04-08T03:38:43;96519.84;;;8.07;49.86
49044;BME280;34860;48.066;14.124;2023-04-08T03:41:32;96521.84;;;8.07;49.73
49044;BME280;34860;48.066;14.124;2023-04-08T03:44:21;96533.34;;;8.05;50.06
49044;BME280;34860;48.066;14.124;2023-04-08T03:47:09;96532.56;;;8.05;49.71
49044;BME280;34860;48.066;14.124;2023-04-08T03:49:57;96533.75;;;8.04;49.78
49044;BME280;34860;48.066;14.124;2023-04-08T03:52:45;96542.47;;;8.02;49.84
49044;BME280;34860;48.066;14.124;2023-04-08T03:55:33;96542.91;;;8.00;49.93
49044;BME280;34860;48.066;14.124;2023-04-08T03:58:21;96539.78;;;7.98;49.96
49044;BME280;34860;48.066;14.124;2023-04-08T04:01:11;96550.84;;;7.98;50.07
49044;BME280;34860;48.066;14.124;2023-04-08T04:03:59;96552.84;;;7.98;49.89
49044;BME280;34860;48.066;14.124;2023-04-08T04:06:48;96554.03;;;7.97;50.04
49044;BME280;34860;48.066;14.124;2023-04-08T04:09:36;96563.13;;;7.97;50.00
49044;BME280;34860;48.066;14.124;2023-04-08T04:12:25;96571.06;;;7.95;49.92
49044;BME280;34860;48.066;14.124;2023-04-08T04:15:14;96573.50;;;7.93;50.14
49044;BME280;34860;48.066;14.124;2023-04-08T04:18:03;96577.78;;;7.94;50.02
49044;BME280;34860;48.066;14.124;2023-04-08T04:20:55;96583.75;;;7.93;50.16
49044;BME280;34860;48.066;14.124;2023-04-08T04:23:43;96577.88;;;7.91;50.07
49044;BME280;34860;48.066;14.124;2023-04-08T04:26:31;96590.50;;;7.92;50.16
49044;BME280;34860;48.066;14.124;2023-04-08T04:29:20;96585.81;;;7.89;50.12
49044;BME280;34860;48.066;14.124;2023-04-08T04:32:08;96602.78;;;7.91;50.18
49044;BME280;34860;48.066;14.124;2023-04-08T04:34:57;96598.06;;;7.88;50.28
49044;BME280;34860;48.066;14.124;2023-04-08T04:37:46;96601.66;;;7.88;50.31
49044;BME280;34860;48.066;14.124;2023-04-08T04:40:37;96604.41;;;7.88;50.18
49044;BME280;34860;48.066;14.124;2023-04-08T04:43:25;96614.69;;;7.88;50.38
49044;BME280;34860;48.066;14.124;2023-04-08T04:46:13;96613.56;;;7.85;50.21
49044;BME280;34860;48.066;14.124;2023-04-08T04:49:01;96612.31;;;7.86;50.28
49044;BME280;34860;48.066;14.124;2023-04-08T04:51:51;96612.75;;;7.85;50.25
49044;BME280;34860;48.066;14.124;2023-04-08T04:54:40;96621.47;;;7.83;50.38
49044;BME280;34860;48.066;14.124;2023-04-08T04:57:28;96617.16;;;7.82;50.33
49044;BME280;34860;48.066;14.124;2023-04-08T05:00:17;96623.09;;;7.80;50.43
49044;BME280;34860;48.066;14.124;2023-04-08T05:03:05;96627.47;;;7.78;50.39
49044;BME280;34860;48.066;14.124;2023-04-08T05:05:53;96624.38;;;7.76;50.37
49044;BME280;34860;48.066;14.124;2023-04-08T05:08:43;96631.84;;;7.75;50.54
49044;BME280;34860;48.066;14.124;2023-04-08T05:11:31;96636.69;;;7.71;50.43
49044;BME280;34860;48.066;14.124;2023-04-08T05:14:22;96631.97;;;7.68;50.52
49044;BME280;34860;48.066;14.124;2023-04-08T05:17:10;96634.00;;;7.64;50.47
49044;BME280;34860;48.066;14.124;2023-04-08T05:19:58;96644.34;;;7.60;50.69
49044;BME280;34860;48.066;14.124;2023-04-08T05:22:46;96640.06;;;7.55;50.63
49044;BME280;34860;48.066;14.124;2023-04-08T05:25:35;96646.84;;;7.51;50.87
49044;BME280;34860;48.066;14.124;2023-04-08T05:28:23;96647.34;;;7.45;50.54
49044;BME280;34860;48.066;14.124;2023-04-08T05:31:12;96657.66;;;7.41;50.87
49044;BME280;34860;48.066;14.124;2023-04-08T05:34:03;96663.22;;;7.38;50.66
49044;BME280;34860;48.066;14.124;2023-04-08T05:36:52;96663.28;;;7.34;50.83
49044;BME280;34860;48.066;14.124;2023-04-08T05:39:40;96670.84;;;7.30;50.86
49044;BME280;34860;48.066;14.124;2023-04-08T05:42:29;96670.13;;;7.26;50.98
49044;BME280;34860;48.066;14.124;2023-04-08T05:45:18;96674.13;;;7.21;50.95
49044;BME280;34860;48.066;14.124;2023-04-08T05:48:06;96678.13;;;7.17;51.09
49044;BME280;34860;48.066;14.124;2023-04-08T05:50:55;96690.00;;;7.14;51.11
49044;BME280;34860;48.066;14.124;2023-04-08T05:53:44;96681.75;;;7.10;50.98
49044;BME280;34860;48.066;14.124;2023-04-08T05:56:32;96685.75;;;7.05;51.12
49044;BME280;34860;48.066;14.124;2023-04-08T05:59:21;96684.59;;;7.03;51.18
49044;BME280;34860;48.066;14.124;2023-04-08T06:02:12;96684.66;;;6.99;51.27
49044;BME280;34860;48.066;14.124;2023-04-08T06:05:01;96691.78;;;6.97;51.13
49044;BME280;34860;48.066;14.124;2023-04-08T06:07:49;96690.63;;;6.94;51.12
49044;BME280;34860;48.066;14.124;2023-04-08T06:10:38;96689.88;;;6.90;51.23
49044;BME280;34860;48.066;14.124;2023-04-08T06:13:26;96697.00;;;6.87;51.25
49044;BME280;34860;48.066;14.124;2023-04-08T06:16:15;96695.06;;;6.84;51.33
49044;BME280;34860;48.066;14.124;2023-04-08T06:19:05;96699.44;;;6.82;51.36
49044;BME280;34860;48.066;14.124;2023-04-08T06:21:56;96689.22;;;6.79;51.36
49044;BME280;34860;48.066;14.124;2023-04-08T06:24:46;96695.94;;;6.78;51.37
49044;BME280;34860;48.066;14.124;2023-04-08T06:27:33;96698.31;;;6.76;51.39
49044;BME280;34860;48.066;14.124;2023-04-08T06:30:23;96696.75;;;6.75;51.41
49044;BME280;34860;48.066;14.124;2023-04-08T06:33:12;96701.91;;;6.72;51.47
49044;BME280;34860;48.066;14.124;2023-04-08T06:36:03;96703.09;;;6.71;51.44
49044;BME280;34860;48.066;14.124;2023-04-08T06:38:52;96708.25;;;6.69;51.40
49044;BME280;34860;48.066;14.124;2023-04-08T06:41:43;96707.47;;;6.69;51.38
49044;BME280;34860;48.066;14.124;2023-04-08T06:44:46;96707.47;;;6.69;51.50
49044;BME280;34860;48.066;14.124;2023-04-08T06:47:34;96710.66;;;6.67;51.24
49044;BME280;34860;48.066;14.124;2023-04-08T06:50:23;96702.34;;;6.67;51.51
49044;BME280;34860;48.066;14.124;2023-04-08T06:53:11;96705.13;;;6.67;51.56
49044;BME280;34860;48.066;14.124;2023-04-08T06:55:59;96704.31;;;6.67;51.43
49044;BME280;34860;48.066;14.124;2023-04-08T06:58:47;96704.31;;;6.67;51.48
49044;BME280;34860;48.066;14.124;2023-04-08T07:01:36;96717.34;;;6.66;51.65
49044;BME280;34860;48.066;14.124;2023-04-08T07:04:24;96726.00;;;6.68;51.76
49044;BME280;34860;48.066;14.124;2023-04-08T07:07:13;96718.56;;;6.65;51.61
49044;BME280;34860;48.066;14.124;2023-04-08T07:10:02;96722.50;;;6.64;51.45
49044;BME280;34860;48.066;14.124;2023-04-08T07:12:50;96726.44;;;6.63;51.64
49044;BME280;34860;48.066;14.124;2023-04-08T07:15:40;96728.03;;;6.64;51.60
49044;BME280;34860;48.066;14.124;2023-04-08T07:18:28;96735.91;;;6.66;51.53
49044;BME280;34860;48.066;14.124;2023-04-08T07:21:16;96742.97;;;6.70;51.13
49044;BME280;34860;48.066;14.124;2023-04-08T07:24:07;96733.50;;;6.68;51.40
49044;BME280;34860;48.066;14.124;2023-04-08T07:26:55;96742.56;;;6.68;51.42
49044;BME280;34860;48.066;14.124;2023-04-08T07:29:43;96730.34;;;6.69;51.20
49044;BME280;34860;48.066;14.124;2023-04-08T07:32:31;96731.91;;;6.70;51.39
49044;BME280;34860;48.066;14.124;2023-04-08T07:35:20;96738.25;;;6.67;51.31
49044;BME280;34860;48.066;14.124;2023-04-08T07:38:11;96739.03;;;6.68;51.29
49044;BME280;34860;48.066;14.124;2023-04-08T07:41:01;96739.03;;;6.68;51.55
49044;BME280;34860;48.066;14.124;2023-04-08T07:43:50;96749.72;;;6.66;51.43
49044;BME280;34860;48.066;14.124;2023-04-08T07:46:38;96750.84;;;6.68;51.36
49044;BME280;34860;48.066;14.124;2023-04-08T07:49:28;96751.69;;;6.65;51.38
49044;BME280;34860;48.066;14.124;2023-04-08T07:52:16;96747.34;;;6.64;51.32
49044;BME280;34860;48.066;14.124;2023-04-08T07:55:05;96753.66;;;6.65;51.44
49044;BME280;34860;48.066;14.124;2023-04-08T07:57:54;96754.09;;;6.60;51.34
49044;BME280;34860;48.066;14.124;2023-04-08T08:00:46;96758.84;;;6.59;51.39
49044;BME280;34860;48.066;14.124;2023-04-08T08:03:34;96753.75;;;6.58;51.44
49044;BME280;34860;48.066;14.124;2023-04-08T08:06:22;96763.63;;;6.55;51.43
49044;BME280;34860;48.066;14.124;2023-04-08T08:09:10;96761.66;;;6.52;51.74
49044;BME280;34860;48.066;14.124;2023-04-08T08:11:59;96771.94;;;6.51;51.52
49044;BME280;34860;48.066;14.124;2023-04-08T08:14:49;96762.88;;;6.47;51.48
49044;BME280;34860;48.066;14.124;2023-04-08T08:17:42;96771.19;;;6.44;51.35
49044;BME280;34860;48.066;14.124;2023-04-08T08:20:30;96767.28;;;6.41;51.39
49044;BME280;34860;48.066;14.124;2023-04-08T08:23:19;96767.31;;;6.38;51.39
49044;BME280;34860;48.066;14.124;2023-04-08T08:26:08;96776.78;;;6.36;51.37
49044;BME280;34860;48.066;14.124;2023-04-08T08:28:59;96772.47;;;6.35;51.72
49044;BME280;34860;48.066;14.124;2023-04-08T08:31:49;96774.81;;;6.37;51.66
49044;BME280;34860;48.066;14.124;2023-04-08T08:34:38;96772.81;;;6.38;51.63
49044;BME280;34860;48.066;14.124;2023-04-08T08:37:26;96774.41;;;6.39;51.66
49044;BME280;34860;48.066;14.124;2023-04-08T08:40:14;96786.22;;;6.39;51.68
49044;BME280;34860;48.066;14.124;2023-04-08T08:43:03;96783.84;;;6.41;51.71
49044;BME280;34860;48.066;14.124;2023-04-08T08:45:53;96778.72;;;6.43;51.62
49044;BME280;34860;48.066;14.124;2023-04-08T08:48:43;96785.78;;;6.44;51.78
49044;BME280;34860;48.066;14.124;2023-04-08T08:51:31;96789.34;;;6.45;52.02
49044;BME280;34860;48.066;14.124;2023-04-08T08:54:22;96797.63;;;6.45;51.57
49044;BME280;34860;48.066;14.124;2023-04-08T08:57:16;96803.16;;;6.45;51.70
49044;BME280;34860;48.066;14.124;2023-04-08T09:00:05;96804.34;;;6.44;51.72
49044;BME280;34860;48.066;14.124;2023-04-08T09:02:55;96814.59;;;6.43;51.83
49044;BME280;34860;48.066;14.124;2023-04-08T09:05:48;96815.00;;;6.42;51.72
49044;BME280;34860;48.066;14.124;2023-04-08T09:08:38;96806.72;;;6.42;51.74
49044;BME280;34860;48.066;14.124;2023-04-08T09:11:26;96814.59;;;6.40;51.80
49044;BME280;34860;48.066;14.124;2023-04-08T09:14:18;96820.53;;;6.38;51.85
49044;BME280;34860;48.066;14.124;2023-04-08T09:17:08;96817.41;;;6.36;51.72
49044;BME280;34860;48.066;14.124;2023-04-08T09:20:03;96820.97;;;6.33;51.90
49044;BME280;34860;48.066;14.124;2023-04-08T09:22:59;96822.16;;;6.32;51.88
49044;BME280;34860;48.066;14.124;2023-04-08T09:25:47;96828.88;;;6.31;51.82
49044;BME280;34860;48.066;14.124;2023-04-08T09:28:38;96828.50;;;6.29;51.75
49044;BME280;34860;48.066;14.124;2023-04-08T09:31:28;96830.84;;;6.27;51.92
49044;BME280;34860;48.066;14.124;2023-04-08T09:34:20;96838.38;;;6.26;51.97
49044;BME280;34860;48.066;14.124;2023-04-08T09:37:14;96832.47;;;6.24;51.96
49044;BME280;34860;48.066;14.124;2023-04-08T09:40:04;96837.19;;;6.24;51.77
49044;BME280;34860;48.066;14.124;2023-04-08T09:42:54;96842.72;;;6.24;51.97
49044;BME280;34860;48.066;14.124;2023-04-08T09:45:45;96839.94;;;6.24;51.96
49044;BME280;34860;48.066;14.124;2023-04-08T09:48:39;96836.00;;;6.25;52.05
49044;BME280;34860;48.066;14.124;2023-04-08T09:51:32;96841.13;;;6.26;52.08
49044;BME280;34860;48.066;14.124;2023-04-08T09:57:38;96844.66;;;6.30;52.04
49044;BME280;34860;48.066;14.124;2023-04-08T10:00:29;96844.66;;;6.30;52.07
49044;BME280;34860;48.066;14.124;2023-04-08T10:03:25;96852.53;;;6.32;52.07
49044;BME280;34860;48.066;14.124;2023-04-08T10:06:15;96842.66;;;6.31;52.13
49044;BME280;34860;48.066;14.124;2023-04-08T10:09:04;96837.94;;;6.31;52.18
49044;BME280;34860;48.066;14.124;2023-04-08T10:11:53;96835.97;;;6.32;52.18
49044;BME280;34860;48.066;14.124;2023-04-08T10:15:23;96847.00;;;6.32;52.18
49044;BME280;34860;48.066;14.124;2023-04-08T10:18:30;96844.25;;;6.32;52.15
49044;BME280;34860;48.066;14.124;2023-04-08T10:21:39;96843.84;;;6.30;52.23
49044;BME280;34860;48.066;14.124;2023-04-08T10:24:33;96852.13;;;6.30;52.32
49044;BME280;34860;48.066;14.124;2023-04-08T10:27:37;96848.59;;;6.29;52.17
49044;BME280;34860;48.066;14.124;2023-04-08T10:30:42;96845.44;;;6.31;52.30
49044;BME280;34860;48.066;14.124;2023-04-08T10:33:32;96852.53;;;6.32;52.16
49044;BME280;34860;48.066;14.124;2023-04-08T10:36:22;96850.91;;;6.34;52.28
49044;BME280;34860;48.066;14.124;2023-04-08T10:39:11;96852.09;;;6.37;52.17
49044;BME280;34860;48.066;14.124;2023-04-08T10:42:02;96843.00;;;6.36;52.22
49044;BME280;34860;48.066;14.124;2023-04-08T10:44:50;96847.72;;;6.40;52.25
49044;BME280;34860;48.066;14.124;2023-04-08T10:47:41;96845.78;;;6.40;52.12
49044;BME280;34860;48.066;14.124;2023-04-08T10:50:29;96850.50;;;6.43;52.31
49044;BME280;34860;48.066;14.124;2023-04-08T10:53:25;96853.22;;;6.47;52.26
49044;BME280;34860;48.066;14.124;2023-04-08T10:56:14;96855.16;;;6.50;52.32
49044;BME280;34860;48.066;14.124;2023-04-08T10:59:05;96855.53;;;6.52;52.38
49044;BME280;34860;48.066;14.124;2023-04-08T11:01:53;96853.94;;;6.54;52.25
49044;BME280;34860;48.066;14.124;2023-04-08T11:04:42;96848.81;;;6.57;52.37
49044;BME280;34860;48.066;14.124;2023-04-08T11:07:30;96849.97;;;6.59;52.46
49044;BME280;34860;48.066;14.124;2023-04-08T11:10:18;96847.22;;;6.59;52.43
49044;BME280;34860;48.066;14.124;2023-04-08T11:13:10;96847.19;;;6.63;52.45
49044;BME280;34860;48.066;14.124;2023-04-08T11:15:59;96848.75;;;6.64;52.38
49044;BME280;34860;48.066;14.124;2023-04-08T11:18:49;96846.78;;;6.64;52.37
49044;BME280;34860;48.066;14.124;2023-04-08T11:21:39;96845.59;;;6.65;52.41
49044;BME280;34860;48.066;14.124;2023-04-08T11:24:27;96849.50;;;6.68;52.46
49044;BME280;34860;48.066;14.124;2023-04-08T11:27:18;96844.75;;;6.68;52.49
49044;BME280;34860;48.066;14.124;2023-04-08T11:30:09;96849.09;;;6.69;52.55
49044;BME280;34860;48.066;14.124;2023-04-08T11:32:58;96846.72;;;6.71;52.45
49044;BME280;34860;48.066;14.124;2023-04-08T11:35:49;96840.81;;;6.69;52.42
49044;BME280;34860;48.066;14.124;2023-04-08T11:38:39;96842.00;;;6.68;52.54
49044;BME280;34860;48.066;14.124;2023-04-08T11:41:35;96848.31;;;6.69;52.32
49044;BME280;34860;48.066;14.124;2023-04-08T11:44:31;96851.88;;;6.69;52.48
49044;BME280;34860;48.066;14.124;2023-04-08T11:47:19;96851.88;;;6.69;52.51
49044;BME280;34860;48.066;14.124;2023-04-08T11:50:09;96855.41;;;6.70;52.32
49044;BME280;34860;48.066;14.124;2023-04-08T11:53:01;96856.19;;;6.70;52.53
49044;BME280;34860;48.066;14.124;2023-04-08T11:55:51;96846.72;;;6.71;52.49
49044;BME280;34860;48.066;14.124;2023-04-08T11:58:39;96858.16;;;6.73;52.68
49044;BME280;34860;48.066;14.124;2023-04-08T12:01:27;96853.38;;;6.78;52.66
49044;BME280;34860;48.066;14.124;2023-04-08T12:04:15;96858.91;;;6.78;52.72
49044;BME280;34860;48.066;14.124;2023-04-08T12:07:04;96858.47;;;6.79;52.59
49044;BME280;34860;48.066;14.124;2023-04-08T12:09:53;96856.91;;;6.82;52.69
49044;BME280;34860;48.066;14.124;2023-04-08T12:12:44;96857.28;;;6.84;52.70
49044;BME280;34860;48.066;14.124;2023-04-08T12:15:40;96861.19;;;6.86;52.69
49044;BME280;34860;48.066;14.124;2023-04-08T12:18:28;96851.69;;;6.87;52.75
49044;BME280;34860;48.066;14.124;2023-04-08T12:21:16;96863.94;;;6.90;52.71
49044;BME280;34860;48.066;14.124;2023-04-08T12:24:06;96863.47;;;6.95;52.81
49044;BME280;34860;48.066;14.124;2023-04-08T12:26:54;96852.44;;;6.95;52.78
49044;BME280;34860;48.066;14.124;2023-04-08T12:29:46;96861.53;;;6.96;52.69
49044;BME280;34860;48.066;14.124;2023-04-08T12:32:35;96859.94;;;6.95;52.79
49044;BME280;34860;48.066;14.124;2023-04-08T12:35:26;96873.75;;;6.95;52.56
49044;BME280;34860;48.066;14.124;2023-04-08T12:38:14;96877.34;;;6.91;52.70
49044;BME280;34860;48.066;14.124;2023-04-08T12:41:02;96870.63;;;6.89;52.71
49044;BME280;34860;48.066;14.124;2023-04-08T12:43:51;96868.28;;;6.87;52.39
49044;BME280;34860;48.066;14.124;2023-04-08T12:46:41;96871.44;;;6.86;52.68
49044;BME280;34860;48.066;14.124;2023-04-08T12:49:30;96867.91;;;6.85;52.67
49044;BME280;34860;48.066;14.124;2023-04-08T12:52:21;96864.38;;;6.85;52.90
49044;BME280;34860;48.066;14.124;2023-04-08T12:55:10;96869.50;;;6.86;52.82
49044;BME280;34860;48.066;14.124;2023-04-08T12:57:58;96868.28;;;6.87;52.87
49044;BME280;34860;48.066;14.124;2023-04-08T13:00:50;96871.44;;;6.89;52.86
49044;BME280;34860;48.066;14.124;2023-04-08T13:03:42;96872.59;;;6.92;52.77
49044;BME280;34860;48.066;14.124;2023-04-08T13:06:32;96870.63;;;6.93;52.79
49044;BME280;34860;48.066;14.124;2023-04-08T13:09:20;96862.34;;;6.93;52.74
49044;BME280;34860;48.066;14.124;2023-04-08T13:12:09;96870.63;;;6.93;52.58
49044;BME280;34860;48.066;14.124;2023-04-08T13:15:01;96872.19;;;6.94;52.67
49044;BME280;34860;48.066;14.124;2023-04-08T13:17:51;96874.56;;;6.91;52.64
49044;BME280;34860;48.066;14.124;2023-04-08T13:20:46;96870.63;;;6.93;52.87
49044;BME280;34860;48.066;14.124;2023-04-08T13:23:35;96876.16;;;6.93;53.09
49044;BME280;34860;48.066;14.124;2023-04-08T13:26:24;96874.94;;;6.94;53.01
49044;BME280;34860;48.066;14.124;2023-04-08T13:29:17;96874.94;;;6.94;53.05
49044;BME280;34860;48.066;14.124;2023-04-08T13:32:07;96876.16;;;6.93;52.94
49044;BME280;34860;48.066;14.124;2023-04-08T13:34:55;96885.22;;;6.93;52.86
49044;BME280;34860;48.066;14.124;2023-04-08T13:37:45;96885.22;;;6.93;52.97
49044;BME280;34860;48.066;14.124;2023-04-08T13:40:36;96888.75;;;6.94;52.90
49044;BME280;34860;48.066;14.124;2023-04-08T13:43:24;96889.56;;;6.90;53.00
49044;BME280;34860;48.066;14.124;2023-04-08T13:46:12;96886.81;;;6.90;53.16
49044;BME280;34860;48.066;14.124;2023-04-08T13:49:00;96885.25;;;6.89;53.12
49044;BME280;34860;48.066;14.124;2023-04-08T13:51:48;96884.44;;;6.89;53.03
49044;BME280;34860;48.066;14.124;2023-04-08T13:54:39;96884.44;;;6.89;53.11
49044;BME280;34860;48.066;14.124;2023-04-08T13:57:27;96888.78;;;6.90;53.13
49044;BME280;34860;48.066;14.124;2023-04-08T14:00:16;96887.63;;;6.91;53.12
49044;BME280;34860;48.066;14.124;2023-04-08T14:03:04;96888.75;;;6.94;53.16
49044;BME280;34860;48.066;14.124;2023-04-08T14:05:53;96893.88;;;6.95;53.26
49044;BME280;34860;48.066;14.124;2023-04-08T14:08:41;96892.28;;;6.98;53.06
49044;BME280;34860;48.066;14.124;2023-04-08T14:11:33;96884.00;;;6.98;53.28
49044;BME280;34860;48.066;14.124;2023-04-08T14:14:25;96889.91;;;7.00;53.14
49044;BME280;34860;48.066;14.124;2023-04-08T14:17:13;96894.97;;;7.05;53.27
49044;BME280;34860;48.066;14.124;2023-04-08T14:20:02;96897.75;;;7.05;53.28
49044;BME280;34860;48.066;14.124;2023-04-08T14:22:51;96894.16;;;7.08;53.23
49044;BME280;34860;48.066;14.124;2023-04-08T14:25:40;96899.28;;;7.09;53.30
49044;BME280;34860;48.066;14.124;2023-04-08T14:28:30;96903.59;;;7.14;53.29
49044;BME280;34860;48.066;14.124;2023-04-08T14:31:18;96899.22;;;7.17;53.25
49044;BME280;34860;48.066;14.124;2023-04-08T14:34:07;96904.31;;;7.22;53.44
49044;BME280;34860;48.066;14.124;2023-04-08T14:36:56;96906.25;;;7.25;53.29
49044;BME280;34860;48.066;14.124;2023-04-08T14:39:44;96901.47;;;7.29;53.21
49044;BME280;34860;48.066;14.124;2023-04-08T14:42:33;96904.63;;;7.31;53.34
49044;BME280;34860;48.066;14.124;2023-04-08T14:45:26;96900.66;;;7.32;53.32
49044;BME280;34860;48.066;14.124;2023-04-08T14:48:14;96910.13;;;7.35;53.36
49044;BME280;34860;48.066;14.124;2023-04-08T14:51:04;96904.59;;;7.35;53.29
49044;BME280;34860;48.066;14.124;2023-04-08T14:53:52;96916.44;;;7.35;53.46
49044;BME280;34860;48.066;14.124;2023-04-08T14:56:40;96915.66;;;7.35;53.24
49044;BME280;34860;48.066;14.124;2023-04-08T14:59:28;96911.31;;;7.34;53.57
49044;BME280;34860;48.066;14.124;2023-04-08T15:02:19;96910.16;;;7.31;53.65
49044;BME280;34860;48.066;14.124;2023-04-08T15:05:08;96912.94;;;7.31;53.83